createdAt,value
2023-01-20T00:01:43.337Z,100449.00
2023-01-20T00:04:10.100Z,100441.00
2023-01-20T00:06:36.897Z,100453.00
2023-01-20T00:09:05.420Z,100450.00
2023-01-20T00:11:33.432Z,100453.00
2023-01-20T00:14:02.361Z,100453.00
2023-01-20T00:16:31.968Z,100457.00
2023-01-20T00:18:59.235Z,100457.00
2023-01-20T00:21:26.009Z,100464.00
2023-01-20T00:23:52.776Z,100459.00
2023-01-20T00:26:23.169Z,100453.00
2023-01-20T00:28:52.996Z,100467.00
2023-01-20T00:31:23.221Z,100466.00
2023-01-20T00:33:52.293Z,100476.00
2023-01-20T00:36:21.218Z,100472.00
2023-01-20T00:38:48.926Z,100476.00
2023-01-20T00:41:16.673Z,100476.00
2023-01-20T00:43:44.403Z,100480.00
2023-01-20T00:46:12.297Z,100484.00
2023-01-20T00:48:39.562Z,100477.00
2023-01-20T00:51:08.201Z,100485.00
2023-01-20T00:53:35.748Z,100490.00
2023-01-20T00:56:02.969Z,100492.00
2023-01-20T00:58:29.747Z,100489.00
2023-01-20T01:00:58.631Z,100499.00
2023-01-20T01:03:28.255Z,100490.00
2023-01-20T01:06:05.728Z,100500.00
2023-01-20T01:08:34.943Z,100509.00
2023-01-20T01:11:01.938Z,100509.00
2023-01-20T01:13:29.248Z,100517.00
2023-01-20T01:15:55.976Z,100517.00
2023-01-20T01:18:22.988Z,100503.00
2023-01-20T01:20:49.869Z,100515.00
2023-01-20T01:23:16.649Z,100512.00
2023-01-20T01:25:43.410Z,100507.00
2023-01-20T01:28:10.199Z,100511.00
2023-01-20T01:30:37.150Z,100516.00
2023-01-20T01:33:04.152Z,100521.00
2023-01-20T01:35:30.941Z,100520.00
2023-01-20T01:37:57.702Z,100522.00
2023-01-20T01:40:24.464Z,100515.00
2023-01-20T01:42:51.238Z,100525.00
2023-01-20T01:45:23.790Z,100521.00
2023-01-20T01:48:09.777Z,100520.00
2023-01-20T01:50:56.236Z,100528.00
2023-01-20T01:53:23.551Z,100518.00
2023-01-20T01:55:56.539Z,100534.00
2023-01-20T01:58:32.280Z,100530.00
2023-01-20T02:00:59.437Z,100537.00
2023-01-20T02:03:40.432Z,100542.00
2023-01-20T02:06:08.042Z,100546.00
2023-01-20T02:08:35.719Z,100544.00
2023-01-20T02:11:02.454Z,100550.00
2023-01-20T02:13:29.447Z,100552.00
2023-01-20T02:16:25.345Z,100566.00
2023-01-20T02:19:30.799Z,100572.00
2023-01-20T02:22:14.439Z,100565.00
2023-01-20T02:25:17.384Z,100560.00
2023-01-20T02:28:21.057Z,100569.00
2023-01-20T02:31:29.342Z,100580.00
2023-01-20T02:34:35.053Z,100586.00
2023-01-20T02:37:24.468Z,100596.00
2023-01-20T02:40:10.069Z,100614.00
2023-01-20T02:42:57.121Z,100608.00
2023-01-20T02:45:42.960Z,100614.00
2023-01-20T02:48:36.144Z,100613.00
2023-01-20T02:51:12.601Z,100624.00
2023-01-20T02:53:48.838Z,100623.00
2023-01-20T02:56:17.727Z,100620.00
2023-01-20T02:59:08.273Z,100622.00
2023-01-20T03:01:47.557Z,100624.00
2023-01-20T03:04:24.246Z,100620.00
2023-01-20T03:06:56.823Z,100628.00
2023-01-20T03:09:31.264Z,100624.00
2023-01-20T03:12:07.948Z,100621.00
2023-01-20T03:14:34.917Z,100629.00
2023-01-20T03:17:02.761Z,100625.00
2023-01-20T03:19:29.959Z,100634.00
2023-01-20T03:21:57.651Z,100639.00
2023-01-20T03:24:28.895Z,100633.00
2023-01-20T03:26:56.191Z,100630.00
2023-01-20T03:29:23.011Z,100640.00
2023-01-20T03:31:56.805Z,100649.00
2023-01-20T03:34:28.059Z,100650.00
2023-01-20T03:36:56.479Z,100655.00
2023-01-20T03:39:25.047Z,100649.00
2023-01-20T03:42:15.747Z,100657.00
2023-01-20T03:45:05.045Z,100655.00
2023-01-20T03:48:07.461Z,100657.00
2023-01-20T03:51:28.436Z,100656.00
2023-01-20T03:54:11.112Z,100657.00
2023-01-20T03:57:04.096Z,100668.00
2023-01-20T03:59:36.908Z,100670.00
2023-01-20T04:02:07.847Z,100673.00
2023-01-20T04:04:39.610Z,100685.00
2023-01-20T04:07:13.708Z,100678.00
2023-01-20T04:09:45.948Z,100679.00
2023-01-20T04:12:13.423Z,100687.00
2023-01-20T04:14:40.343Z,100687.00
2023-01-20T04:17:07.916Z,100684.00
2023-01-20T04:19:34.854Z,100688.00
2023-01-20T04:22:28.196Z,100691.00
2023-01-20T04:25:06.711Z,100700.00
2023-01-20T04:27:33.512Z,100700.00
2023-01-20T04:30:00.241Z,100703.00
2023-01-20T04:32:27.028Z,100701.00
2023-01-20T04:34:53.977Z,100698.00
2023-01-20T04:37:20.685Z,100700.00
2023-01-20T04:39:47.396Z,100710.00
2023-01-20T04:42:14.148Z,100696.00
2023-01-20T04:44:40.918Z,100708.00
2023-01-20T04:47:07.775Z,100716.00
2023-01-20T04:49:35.506Z,100723.00
2023-01-20T04:52:02.356Z,100728.00
2023-01-20T04:54:29.089Z,100727.00
2023-01-20T04:56:55.832Z,100721.00
2023-01-20T04:59:22.705Z,100740.00
2023-01-20T05:01:49.599Z,100731.00
2023-01-20T05:04:16.393Z,100732.00
2023-01-20T05:06:44.868Z,100731.00
2023-01-20T05:09:16.682Z,100732.00
2023-01-20T05:11:44.404Z,100732.00
2023-01-20T05:14:12.514Z,100740.00
2023-01-20T05:16:39.273Z,100739.00
2023-01-20T05:19:06.057Z,100753.00
2023-01-20T05:21:33.783Z,100755.00
2023-01-20T05:24:00.673Z,100762.00
2023-01-20T05:26:27.511Z,100765.00
2023-01-20T05:28:54.463Z,100767.00
2023-01-20T05:31:21.456Z,100769.00
2023-01-20T05:33:48.233Z,100783.00
2023-01-20T05:36:14.952Z,100778.00
2023-01-20T05:38:41.822Z,100773.00
2023-01-20T05:41:09.898Z,100776.00
2023-01-20T05:43:37.243Z,100792.00
2023-01-20T05:46:06.523Z,100797.00
2023-01-20T05:48:33.518Z,100797.00
2023-01-20T05:51:00.336Z,100801.00
2023-01-20T05:53:27.123Z,100805.00
2023-01-20T05:56:02.230Z,100801.00
2023-01-20T05:58:30.127Z,100805.00
2023-01-20T06:01:09.487Z,100804.00
2023-01-20T06:03:37.143Z,100813.00
2023-01-20T06:06:07.950Z,100808.00
2023-01-20T06:08:35.856Z,100818.00
2023-01-20T06:11:02.793Z,100822.00
2023-01-20T06:13:29.680Z,100832.00
2023-01-20T06:15:56.804Z,100831.00
2023-01-20T06:18:24.877Z,100838.00
2023-01-20T06:20:51.776Z,100835.00
2023-01-20T06:23:18.673Z,100832.00
2023-01-20T06:25:45.503Z,100849.00
2023-01-20T06:28:12.352Z,100852.00
2023-01-20T06:30:39.181Z,100867.00
2023-01-20T06:33:10.554Z,100851.00
2023-01-20T06:35:37.892Z,100864.00
2023-01-20T06:38:04.746Z,100867.00
2023-01-20T06:40:31.829Z,100869.00
2023-01-20T06:42:59.366Z,100879.00
2023-01-20T06:45:26.172Z,100890.00
2023-01-20T06:47:52.978Z,100889.00
2023-01-20T06:50:19.847Z,100894.00
2023-01-20T06:52:46.589Z,100898.00
2023-01-20T06:55:13.555Z,100903.00
2023-01-20T06:57:40.484Z,100910.00
2023-01-20T07:00:09.680Z,100922.00
2023-01-20T07:02:36.491Z,100914.00
2023-01-20T07:05:04.658Z,100922.00
2023-01-20T07:07:31.380Z,100927.00
2023-01-20T07:09:58.140Z,100921.00
2023-01-20T07:12:24.881Z,100937.00
2023-01-20T07:14:51.628Z,100935.00
2023-01-20T07:17:18.399Z,100944.00
2023-01-20T07:19:45.382Z,100946.00
2023-01-20T07:22:12.117Z,100951.00
2023-01-20T07:24:38.971Z,100949.00
2023-01-20T07:27:05.761Z,100955.00
2023-01-20T07:29:32.518Z,100959.00
2023-01-20T07:31:59.383Z,100962.00
2023-01-20T07:34:26.207Z,100961.00
2023-01-20T07:36:55.814Z,100973.00
2023-01-20T07:39:22.565Z,100974.00
2023-01-20T07:41:49.707Z,100978.00
2023-01-20T07:44:16.782Z,100983.00
2023-01-20T07:46:43.599Z,100985.00
2023-01-20T07:49:12.395Z,100984.00
2023-01-20T07:51:39.854Z,100980.00
2023-01-20T07:54:06.757Z,100986.00
2023-01-20T07:56:33.638Z,100997.00
2023-01-20T07:59:00.857Z,100986.00
2023-01-20T08:01:30.884Z,100990.00
2023-01-20T08:04:02.444Z,100992.00
2023-01-20T08:06:30.341Z,101001.00
2023-01-20T08:09:01.961Z,101004.00
2023-01-20T08:11:29.465Z,101003.00
2023-01-20T08:13:56.437Z,101005.00
2023-01-20T08:16:23.584Z,101006.00
2023-01-20T08:18:53.855Z,100998.00
2023-01-20T08:21:28.892Z,101016.00
2023-01-20T08:23:57.651Z,101025.00
2023-01-20T08:26:25.450Z,101024.00
2023-01-20T08:28:52.272Z,101025.00
2023-01-20T08:31:22.342Z,101027.00
2023-01-20T08:33:54.502Z,101027.00
2023-01-20T08:36:29.765Z,101033.00
2023-01-20T08:38:59.869Z,101032.00
2023-01-20T08:41:34.574Z,101037.00
2023-01-20T08:44:04.575Z,101031.00
2023-01-20T08:46:32.780Z,101033.00
2023-01-20T08:48:59.606Z,101044.00
2023-01-20T08:51:31.020Z,101041.00
2023-01-20T08:53:58.319Z,101043.00
2023-01-20T08:56:25.147Z,101044.00
2023-01-20T08:58:52.245Z,101063.00
2023-01-20T09:01:26.512Z,101062.00
2023-01-20T09:04:05.512Z,101062.00
2023-01-20T09:06:46.359Z,101067.00
2023-01-20T09:09:16.789Z,101071.00
2023-01-20T09:11:50.949Z,101079.00
2023-01-20T09:14:24.692Z,101088.00
2023-01-20T09:16:51.729Z,101084.00
2023-01-20T09:19:18.746Z,101091.00
2023-01-20T09:21:45.508Z,101094.00
2023-01-20T09:24:12.484Z,101106.00
2023-01-20T09:26:41.548Z,101100.00
2023-01-20T09:29:12.843Z,101102.00
2023-01-20T09:31:44.921Z,101116.00
2023-01-20T09:34:21.397Z,101118.00
2023-01-20T09:37:19.974Z,101125.00
2023-01-20T09:40:06.196Z,101126.00
2023-01-20T09:43:25.368Z,101135.00
2023-01-20T09:46:21.891Z,101137.00
2023-01-20T09:49:26.363Z,101135.00
2023-01-20T09:52:45.953Z,101138.00
2023-01-20T09:55:28.760Z,101143.00
2023-01-20T09:58:25.663Z,101146.00
2023-01-20T10:01:13.874Z,101137.00
2023-01-20T10:03:58.689Z,101141.00
2023-01-20T10:06:51.591Z,101144.00
2023-01-20T10:09:52.787Z,101148.00
2023-01-20T10:12:33.838Z,101152.00
2023-01-20T10:15:12.604Z,101160.00
2023-01-20T10:18:02.266Z,101169.00
2023-01-20T10:21:00.857Z,101168.00
2023-01-20T10:23:46.456Z,101160.00
2023-01-20T10:26:40.935Z,101153.00
2023-01-20T10:29:17.953Z,101156.00
2023-01-20T10:32:00.209Z,101154.00
2023-01-20T10:34:56.314Z,101161.00
2023-01-20T10:37:24.553Z,101154.00
2023-01-20T10:40:14.030Z,101149.00
2023-01-20T10:42:41.400Z,101164.00
2023-01-20T10:45:23.179Z,101169.00
2023-01-20T10:48:25.916Z,101180.00
2023-01-20T10:51:37.820Z,101168.00
2023-01-20T10:54:41.411Z,101169.00
2023-01-20T10:57:14.022Z,101172.00
2023-01-20T10:59:51.548Z,101173.00
2023-01-20T11:02:34.982Z,101176.00
2023-01-20T11:05:18.890Z,101170.00
2023-01-20T11:07:47.515Z,101174.00
2023-01-20T11:10:25.025Z,101176.00
2023-01-20T11:12:57.470Z,101170.00
2023-01-20T11:15:36.713Z,101174.00
2023-01-20T11:18:15.765Z,101181.00
2023-01-20T11:20:58.102Z,101174.00
2023-01-20T11:23:52.229Z,101174.00
2023-01-20T11:26:31.645Z,101173.00
2023-01-20T11:29:28.626Z,101183.00
2023-01-20T11:31:56.752Z,101180.00
2023-01-20T11:34:26.535Z,101186.00
2023-01-20T11:37:19.539Z,101175.00
2023-01-20T11:39:49.314Z,101175.00
2023-01-20T11:42:27.485Z,101176.00
2023-01-20T11:45:19.831Z,101186.00
2023-01-20T11:48:04.887Z,101198.00
2023-01-20T11:50:46.380Z,101194.00
2023-01-20T11:53:34.773Z,101187.00
2023-01-20T11:56:15.158Z,101200.00
2023-01-20T11:59:01.841Z,101193.00
2023-01-20T12:01:49.956Z,101191.00
2023-01-20T12:04:54.456Z,101192.00
2023-01-20T12:07:29.314Z,101202.00
2023-01-20T12:10:17.092Z,101200.00
2023-01-20T12:13:24.997Z,101214.00
2023-01-20T12:15:59.076Z,101216.00
2023-01-20T12:18:45.440Z,101224.00
2023-01-20T12:21:26.358Z,101218.00
2023-01-20T12:24:09.659Z,101225.00
2023-01-20T12:26:36.694Z,101228.00
2023-01-20T12:29:28.756Z,101228.00
2023-01-20T12:31:55.633Z,101232.00
2023-01-20T12:34:29.801Z,101241.00
2023-01-20T12:37:24.761Z,101243.00
2023-01-20T12:40:13.439Z,101242.00
2023-01-20T12:43:12.868Z,101248.00
2023-01-20T12:46:03.300Z,101259.00
2023-01-20T12:48:54.327Z,101260.00
2023-01-20T12:51:54.314Z,101256.00
2023-01-20T12:55:17.453Z,101261.00
2023-01-20T12:58:17.253Z,101268.00
2023-01-20T13:01:29.083Z,101265.00
2023-01-20T13:04:48.795Z,101274.00
2023-01-20T13:07:33.021Z,101281.00
2023-01-20T13:10:47.059Z,101275.00
2023-01-20T13:14:02.019Z,101285.00
2023-01-20T13:16:42.601Z,101280.00
2023-01-20T13:19:37.162Z,101289.00
2023-01-20T13:22:19.641Z,101296.00
2023-01-20T13:24:50.750Z,101296.00
2023-01-20T13:27:29.075Z,101285.00
2023-01-20T13:29:58.949Z,101291.00
2023-01-20T13:32:48.152Z,101294.00
2023-01-20T13:35:17.933Z,101299.00
2023-01-20T13:37:57.588Z,101303.00
2023-01-20T13:40:36.544Z,101301.00
2023-01-20T13:43:26.351Z,101299.00
2023-01-20T13:46:06.597Z,101308.00
2023-01-20T13:48:43.849Z,101306.00
2023-01-20T13:51:42.405Z,101310.00
2023-01-20T13:54:25.145Z,101316.00
2023-01-20T13:56:52.387Z,101321.00
2023-01-20T13:59:19.178Z,101317.00
2023-01-20T14:01:45.974Z,101315.00
2023-01-20T14:04:19.610Z,101322.00
2023-01-20T14:06:49.637Z,101321.00
2023-01-20T14:09:34.678Z,101318.00
2023-01-20T14:12:01.449Z,101316.00
2023-01-20T14:14:28.176Z,101331.00
2023-01-20T14:16:56.467Z,101323.00
2023-01-20T14:19:33.917Z,101320.00
2023-01-20T14:22:16.443Z,101333.00
2023-01-20T14:24:49.265Z,101333.00
2023-01-20T14:27:35.492Z,101348.00
2023-01-20T14:30:26.045Z,101343.00
2023-01-20T14:32:53.808Z,101348.00
2023-01-20T14:35:34.353Z,101351.00
2023-01-20T14:38:02.139Z,101362.00
2023-01-20T14:40:32.999Z,101360.00
2023-01-20T14:43:16.557Z,101372.00
2023-01-20T14:45:47.204Z,101364.00
2023-01-20T14:48:28.238Z,101380.00
2023-01-20T14:51:02.784Z,101375.00
2023-01-20T14:53:29.628Z,101387.00
2023-01-20T14:56:03.091Z,101386.00
2023-01-20T14:58:31.054Z,101395.00
2023-01-20T15:01:06.700Z,101399.00
2023-01-20T15:03:33.630Z,101403.00
2023-01-20T15:06:17.564Z,101403.00
2023-01-20T15:09:04.325Z,101409.00
2023-01-20T15:11:32.979Z,101414.00
2023-01-20T15:14:02.414Z,101422.00
2023-01-20T15:16:47.273Z,101415.00
2023-01-20T15:19:16.929Z,101422.00
2023-01-20T15:21:58.809Z,101426.00
2023-01-20T15:24:32.849Z,101421.00
2023-01-20T15:27:01.260Z,101425.00
2023-01-20T15:29:34.580Z,101433.00
2023-01-20T15:32:12.870Z,101424.00
2023-01-20T15:34:39.661Z,101432.00
2023-01-20T15:37:19.952Z,101436.00
2023-01-20T15:39:47.557Z,101446.00
2023-01-20T15:42:15.327Z,101449.00
2023-01-20T15:44:42.117Z,101446.00
2023-01-20T15:47:29.134Z,101460.00
2023-01-20T15:49:55.956Z,101469.00
2023-01-20T15:52:22.735Z,101469.00
2023-01-20T15:54:49.453Z,101477.00
2023-01-20T15:57:18.025Z,101486.00
2023-01-20T15:59:46.077Z,101494.00
2023-01-20T16:02:23.007Z,101498.00
2023-01-20T16:04:50.481Z,101501.00
2023-01-20T16:07:19.677Z,101505.00
2023-01-20T16:09:46.922Z,101505.00
2023-01-20T16:12:16.223Z,101502.00
2023-01-20T16:14:43.338Z,101505.00
2023-01-20T16:17:21.517Z,101517.00
2023-01-20T16:19:50.044Z,101527.00
2023-01-20T16:22:17.263Z,101528.00
2023-01-20T16:24:44.221Z,101530.00
2023-01-20T16:27:21.607Z,101525.00
2023-01-20T16:29:49.198Z,101522.00
2023-01-20T16:32:18.671Z,101519.00
2023-01-20T16:34:46.686Z,101532.00
2023-01-20T16:37:14.696Z,101534.00
2023-01-20T16:39:41.567Z,101546.00
2023-01-20T16:42:12.422Z,101547.00
2023-01-20T16:44:39.197Z,101548.00
2023-01-20T16:47:08.250Z,101547.00
2023-01-20T16:49:35.088Z,101555.00
2023-01-20T16:52:01.844Z,101553.00
2023-01-20T16:54:28.551Z,101554.00
2023-01-20T16:56:55.322Z,101564.00
2023-01-20T16:59:22.581Z,101560.00
2023-01-20T17:01:49.455Z,101565.00
2023-01-20T17:04:16.679Z,101567.00
2023-01-20T17:06:43.502Z,101576.00
2023-01-20T17:09:11.283Z,101578.00
2023-01-20T17:11:40.401Z,101589.00
2023-01-20T17:14:10.479Z,101585.00
2023-01-20T17:16:38.730Z,101582.00
2023-01-20T17:19:06.173Z,101591.00
2023-01-20T17:21:38.403Z,101592.00
2023-01-20T17:24:06.066Z,101596.00
2023-01-20T17:26:34.461Z,101604.00
2023-01-20T17:29:05.249Z,101603.00
2023-01-20T17:31:35.566Z,101605.00
2023-01-20T17:34:06.817Z,101606.00
2023-01-20T17:36:38.645Z,101606.00
2023-01-20T17:39:07.109Z,101617.00
2023-01-20T17:41:34.661Z,101622.00
2023-01-20T17:44:01.385Z,101623.00
2023-01-20T17:46:30.195Z,101619.00
2023-01-20T17:49:01.709Z,101640.00
2023-01-20T17:51:30.203Z,101637.00
2023-01-20T17:54:03.528Z,101636.00
2023-01-20T17:56:30.771Z,101648.00
2023-01-20T17:58:57.538Z,101635.00
2023-01-20T18:01:28.774Z,101642.00
2023-01-20T18:03:59.307Z,101653.00
2023-01-20T18:06:28.119Z,101650.00
2023-01-20T18:08:58.715Z,101662.00
2023-01-20T18:11:28.903Z,101669.00
2023-01-20T18:13:58.263Z,101671.00
2023-01-20T18:16:30.110Z,101670.00
2023-01-20T18:18:58.967Z,101668.00
2023-01-20T18:21:29.892Z,101674.00
2023-01-20T18:23:58.120Z,101674.00
2023-01-20T18:26:29.382Z,101676.00
2023-01-20T18:28:59.867Z,101684.00
2023-01-20T18:31:28.961Z,101682.00
2023-01-20T18:33:59.217Z,101685.00
2023-01-20T18:36:30.442Z,101694.00
2023-01-20T18:39:08.105Z,101692.00
2023-01-20T18:41:37.632Z,101692.00
2023-01-20T18:44:05.518Z,101703.00
2023-01-20T18:46:32.921Z,101702.00
2023-01-20T18:49:00.116Z,101703.00
2023-01-20T18:51:30.020Z,101708.00
2023-01-20T18:54:07.344Z,101703.00
2023-01-20T18:56:35.293Z,101711.00
2023-01-20T18:59:04.158Z,101717.00
2023-01-20T19:01:35.715Z,101715.00
2023-01-20T19:04:04.466Z,101710.00
2023-01-20T19:06:36.030Z,101718.00
2023-01-20T19:09:04.886Z,101709.00
2023-01-20T19:11:36.284Z,101715.00
2023-01-20T19:14:03.683Z,101719.00
2023-01-20T19:16:40.233Z,101724.00
2023-01-20T19:19:07.787Z,101722.00
2023-01-20T19:21:36.165Z,101732.00
2023-01-20T19:24:06.113Z,101735.00
2023-01-20T19:26:36.654Z,101747.00
2023-01-20T19:29:11.793Z,101737.00
2023-01-20T19:31:41.405Z,101741.00
2023-01-20T19:34:09.767Z,101743.00
2023-01-20T19:36:37.378Z,101754.00
2023-01-20T19:39:05.467Z,101752.00
2023-01-20T19:41:34.262Z,101768.00
2023-01-20T19:44:03.253Z,101761.00
2023-01-20T19:46:33.864Z,101760.00
2023-01-20T19:49:02.207Z,101759.00
2023-01-20T19:51:31.141Z,101759.00
2023-01-20T19:54:00.879Z,101770.00
2023-01-20T19:56:31.306Z,101775.00
2023-01-20T19:59:00.706Z,101778.00
2023-01-20T20:01:31.987Z,101778.00
2023-01-20T20:04:03.495Z,101785.00
2023-01-20T20:06:40.536Z,101790.00
2023-01-20T20:09:12.358Z,101794.00
2023-01-20T20:11:39.932Z,101789.00
2023-01-20T20:14:10.950Z,101796.00
2023-01-20T20:16:38.601Z,101795.00
2023-01-20T20:19:07.392Z,101797.00
2023-01-20T20:21:35.008Z,101793.00
2023-01-20T20:24:05.175Z,101804.00
2023-01-20T20:26:36.605Z,101804.00
2023-01-20T20:29:07.040Z,101808.00
2023-01-20T20:31:36.811Z,101819.00
2023-01-20T20:34:06.824Z,101803.00
2023-01-20T20:36:33.906Z,101809.00
2023-01-20T20:39:03.328Z,101820.00
2023-01-20T20:41:31.683Z,101816.00
2023-01-20T20:44:01.163Z,101825.00
2023-01-20T20:46:29.948Z,101823.00
2023-01-20T20:49:02.147Z,101827.00
2023-01-20T20:51:32.175Z,101837.00
2023-01-20T20:54:01.858Z,101828.00
2023-01-20T20:56:33.673Z,101839.00
2023-01-20T20:59:03.208Z,101838.00
2023-01-20T21:01:33.541Z,101840.00
2023-01-20T21:04:01.475Z,101841.00
2023-01-20T21:06:29.462Z,101841.00
2023-01-20T21:08:56.452Z,101853.00
2023-01-20T21:11:24.943Z,101833.00
2023-01-20T21:13:52.875Z,101840.00
2023-01-20T21:16:23.000Z,101858.00
2023-01-20T21:18:52.243Z,101849.00
2023-01-20T21:21:20.141Z,101850.00
2023-01-20T21:23:55.776Z,101863.00
2023-01-20T21:26:26.222Z,101863.00
2023-01-20T21:28:54.069Z,101864.00
2023-01-20T21:31:24.579Z,101872.00
2023-01-20T21:33:54.509Z,101880.00
2023-01-20T21:36:22.269Z,101886.00
2023-01-20T21:38:50.234Z,101875.00
2023-01-20T21:41:17.975Z,101878.00
2023-01-20T21:44:06.014Z,101885.00
2023-01-20T21:46:38.959Z,101891.00
2023-01-20T21:49:28.142Z,101893.00
2023-01-20T21:52:14.574Z,101899.00
2023-01-20T21:54:41.950Z,101911.00
2023-01-20T21:57:09.215Z,101917.00
2023-01-20T21:59:36.415Z,101907.00
2023-01-20T22:02:03.311Z,101910.00
2023-01-20T22:04:30.199Z,101909.00
2023-01-20T22:06:56.954Z,101914.00
2023-01-20T22:09:23.880Z,101909.00
2023-01-20T22:11:50.722Z,101921.00
2023-01-20T22:14:17.751Z,101917.00
2023-01-20T22:16:44.748Z,101925.00
2023-01-20T22:19:14.930Z,101924.00
2023-01-20T22:21:42.647Z,101929.00
2023-01-20T22:24:11.437Z,101929.00
2023-01-20T22:26:38.417Z,101923.00
2023-01-20T22:29:05.335Z,101929.00
2023-01-20T22:31:34.160Z,101935.00
2023-01-20T22:34:06.148Z,101928.00
2023-01-20T22:36:34.121Z,101942.00
2023-01-20T22:39:01.042Z,101940.00
2023-01-20T22:41:27.984Z,101947.00
2023-01-20T22:43:55.767Z,101954.00
2023-01-20T22:46:25.272Z,101954.00
2023-01-20T22:48:52.245Z,101957.00
2023-01-20T22:51:22.882Z,101961.00
2023-01-20T22:53:54.646Z,101951.00
2023-01-20T22:56:30.503Z,101962.00
2023-01-20T22:58:59.553Z,101966.00
2023-01-20T23:01:33.170Z,101963.00
2023-01-20T23:04:05.628Z,101971.00
2023-01-20T23:06:35.412Z,101971.00
2023-01-20T23:09:07.248Z,101962.00
2023-01-20T23:11:36.541Z,101966.00
2023-01-20T23:14:03.716Z,101969.00
2023-01-20T23:16:30.459Z,101976.00
2023-01-20T23:18:57.307Z,101974.00
2023-01-20T23:21:24.485Z,101985.00
2023-01-20T23:23:54.470Z,101978.00
2023-01-20T23:26:25.784Z,101980.00
2023-01-20T23:28:53.913Z,101975.00
2023-01-20T23:31:23.016Z,101974.00
2023-01-20T23:33:50.466Z,101980.00
2023-01-20T23:36:21.536Z,101969.00
2023-01-20T23:38:48.288Z,101971.00
2023-01-20T23:41:15.842Z,101967.00
2023-01-20T23:43:43.151Z,101973.00
2023-01-20T23:46:10.937Z,101980.00
2023-01-20T23:48:39.180Z,101982.00
2023-01-20T23:51:06.860Z,101978.00
2023-01-20T23:53:40.349Z,101984.00
2023-01-20T23:56:15.847Z,101983.00
2023-01-20T23:58:42.859Z,101989.00
